Time;durP1;ratioP1;P1;durP2;ratioP2;P2;SDS_P1;SDS_P2;PMS_P1;PMS_P2;Temp;Humidity;BMP_temperature;BMP_pressure;BME280_temperature;BME280_humidity;BME280_pressure;Samples;Min_cycle;Max_cycle;Signal;HPM_P1;HPM_P2
2022/10/08 00:00:53;;;;;;;;;;;20.20;65.30;;;;;;5045118;27;89489;-52
2022/10/08 00:03:20;;;;;;;;;;;20.10;65.10;;;;;;5040051;27;90231;-55
2022/10/08 00:05:55;;;;;;;;;;;20.20;65.00;;;;;;5055398;27;90450;-52
2022/10/08 00:08:23;;;;;;;;;;;20.20;65.10;;;;;;5044902;27;92699;-51
2022/10/08 00:10:53;;;;;;;;;;;20.10;64.90;;;;;;5049782;27;90013;-52
2022/10/08 00:13:19;;;;;;;;;;;20.10;65.00;;;;;;5049909;27;92111;-51
2022/10/08 00:15:44;;;;;;;;;;;20.10;65.10;;;;;;5057862;27;90614;-48
2022/10/08 00:18:10;;;;;;;;;;;20.10;65.30;;;;;;5046479;27;89793;-49
2022/10/08 00:20:35;;;;;;;;;;;20.10;65.10;;;;;;5044588;27;89476;-50
2022/10/08 00:23:01;;;;;;;;;;;20.20;65.00;;;;;;5043985;27;90186;-49
2022/10/08 00:25:27;;;;;;;;;;;20.20;64.70;;;;;;5050937;27;89685;-49
2022/10/08 00:27:53;;;;;;;;;;;20.20;64.80;;;;;;5052752;27;89928;-50
2022/10/08 00:30:18;;;;;;;;;;;20.10;64.80;;;;;;5049058;27;90290;-51
2022/10/08 00:32:44;;;;;;;;;;;20.20;64.60;;;;;;5057383;27;91476;-51
2022/10/08 00:35:09;;;;;;;;;;;20.20;64.70;;;;;;5049986;27;89937;-49
2022/10/08 00:37:35;;;;;;;;;;;20.20;64.30;;;;;;5049751;27;89812;-50
2022/10/08 00:40:00;;;;;;;;;;;20.10;64.30;;;;;;5045771;27;89892;-52
2022/10/08 00:42:26;;;;;;;;;;;20.20;64.40;;;;;;5040778;27;90426;-52
2022/10/08 00:44:53;;;;;;;;;;;20.20;64.50;;;;;;5044053;27;90169;-51
2022/10/08 00:47:31;;;;;;;;;;;20.20;64.60;;;;;;5052226;27;89818;-52
2022/10/08 00:50:08;;;;;;;;;;;20.10;64.60;;;;;;5038478;27;89633;-49
2022/10/08 00:52:36;;;;;;;;;;;20.10;64.50;;;;;;5041665;27;99048;-53
2022/10/08 00:55:05;;;;;;;;;;;20.10;64.60;;;;;;5051855;27;89937;-55
2022/10/08 00:57:31;;;;;;;;;;;20.20;64.60;;;;;;5048012;27;90443;-53
2022/10/08 00:59:57;;;;;;;;;;;20.10;64.60;;;;;;5033295;27;89672;-51
2022/10/08 01:02:23;;;;;;;;;;;20.10;64.40;;;;;;5043910;27;91065;-49
2022/10/08 01:04:49;;;;;;;;;;;20.10;64.40;;;;;;5048009;27;89547;-52
2022/10/08 01:07:40;;;;;;;;;;;20.10;64.50;;;;;;5047945;27;91805;-52
2022/10/08 01:10:11;;;;;;;;;;;20.10;64.70;;;;;;5035342;27;91159;-54
2022/10/08 01:12:44;;;;;;;;;;;20.10;64.90;;;;;;5048610;27;90799;-48
2022/10/08 01:15:27;;;;;;;;;;;20.10;64.60;;;;;;5052027;27;89221;-55
2022/10/08 01:17:53;;;;;;;;;;;20.10;64.70;;;;;;5050935;27;90394;-51
2022/10/08 01:20:28;;;;;;;;;;;20.10;64.50;;;;;;5037788;27;92186;-51
2022/10/08 01:23:02;;;;;;;;;;;20.10;64.60;;;;;;5044241;27;93033;-51
2022/10/08 01:25:43;;;;;;;;;;;20.10;64.60;;;;;;5000772;27;90594;-52
2022/10/08 01:28:12;;;;;;;;;;;20.10;64.40;;;;;;5045478;27;93600;-51
2022/10/08 01:30:40;;;;;;;;;;;20.10;64.20;;;;;;5048653;27;89531;-50
2022/10/08 01:33:21;;;;;;;;;;;20.10;64.50;;;;;;5043462;27;89875;-51
2022/10/08 01:35:49;;;;;;;;;;;20.10;64.60;;;;;;5051299;27;89579;-53
2022/10/08 01:38:16;;;;;;;;;;;20.10;64.50;;;;;;5035660;27;89781;-51
2022/10/08 01:40:43;;;;;;;;;;;20.10;65.30;;;;;;5050424;27;90107;-50
2022/10/08 01:43:11;;;;;;;;;;;20.10;64.50;;;;;;5049384;27;90943;-49
2022/10/08 01:45:39;;;;;;;;;;;20.10;64.70;;;;;;5045595;27;90729;-51
2022/10/08 01:48:06;;;;;;;;;;;20.10;64.60;;;;;;5039148;27;94584;-48
2022/10/08 01:50:36;;;;;;;;;;;20.10;64.50;;;;;;5045906;27;90218;-51
2022/10/08 01:53:08;;;;;;;;;;;20.10;64.60;;;;;;5047810;27;89728;-52
2022/10/08 01:55:35;;;;;;;;;;;20.10;64.50;;;;;;5050664;27;89981;-53
2022/10/08 01:58:10;;;;;;;;;;;20.10;64.40;;;;;;5042882;27;89542;-52
2022/10/08 02:00:37;;;;;;;;;;;20.10;64.50;;;;;;5043981;27;89985;-50
2022/10/08 02:03:02;;;;;;;;;;;20.10;64.40;;;;;;5044513;27;90208;-52
2022/10/08 02:05:31;;;;;;;;;;;20.00;64.30;;;;;;5047149;27;89126;-53
2022/10/08 02:07:56;;;;;;;;;;;20.00;64.70;;;;;;5047232;27;90232;-52
2022/10/08 02:10:23;;;;;;;;;;;20.00;64.60;;;;;;5047179;27;89945;-49
2022/10/08 02:12:48;;;;;;;;;;;20.00;64.60;;;;;;5050324;27;94202;-55
2022/10/08 02:15:30;;;;;;;;;;;20.00;64.40;;;;;;5045869;27;93788;-52
2022/10/08 02:18:08;;;;;;;;;;;20.00;64.60;;;;;;5045403;27;89946;-49
2022/10/08 02:20:40;;;;;;;;;;;20.00;64.50;;;;;;5045014;27;89908;-51
2022/10/08 02:23:23;;;;;;;;;;;20.00;64.50;;;;;;5044248;27;93881;-50
2022/10/08 02:25:53;;;;;;;;;;;20.00;64.40;;;;;;5051553;27;90331;-52
2022/10/08 02:28:28;;;;;;;;;;;20.10;64.40;;;;;;5052982;27;89499;-50
2022/10/08 02:31:09;;;;;;;;;;;20.00;64.50;;;;;;5045622;27;88939;-51
2022/10/08 02:33:43;;;;;;;;;;;20.00;64.50;;;;;;5045924;27;93665;-51
2022/10/08 02:36:10;;;;;;;;;;;20.00;64.70;;;;;;5049110;27;96730;-54
2022/10/08 02:38:39;;;;;;;;;;;20.00;64.70;;;;;;5049832;27;90832;-50
2022/10/08 02:41:06;;;;;;;;;;;20.00;64.40;;;;;;5054387;27;89868;-50
2022/10/08 02:43:33;;;;;;;;;;;20.00;64.30;;;;;;5027630;27;91269;-51
2022/10/08 02:46:08;;;;;;;;;;;20.00;64.50;;;;;;5042884;27;91856;-55
2022/10/08 02:48:35;;;;;;;;;;;20.00;64.60;;;;;;5041217;27;90319;-51
2022/10/08 02:51:05;;;;;;;;;;;20.00;64.70;;;;;;5050306;27;92823;-53
2022/10/08 02:53:31;;;;;;;;;;;20.00;64.60;;;;;;5047689;27;90003;-51
2022/10/08 02:55:59;;;;;;;;;;;20.00;64.50;;;;;;5049303;27;93471;-52
2022/10/08 02:58:25;;;;;;;;;;;20.00;64.50;;;;;;5046709;27;93906;-50
2022/10/08 03:00:58;;;;;;;;;;;20.00;64.60;;;;;;5053573;27;90994;-50
2022/10/08 03:03:44;;;;;;;;;;;20.00;64.50;;;;;;5043800;27;95836;-54
2022/10/08 03:06:11;;;;;;;;;;;20.00;64.60;;;;;;5046463;27;90066;-52
2022/10/08 03:08:39;;;;;;;;;;;20.00;64.60;;;;;;5041247;27;90371;-55
2022/10/08 03:11:05;;;;;;;;;;;20.00;64.60;;;;;;5049602;27;91852;-48
2022/10/08 03:13:34;;;;;;;;;;;19.90;64.60;;;;;;5051335;27;89895;-48
2022/10/08 03:16:00;;;;;;;;;;;19.90;65.10;;;;;;5050728;27;92237;-51
2022/10/08 03:18:26;;;;;;;;;;;19.90;64.80;;;;;;5055554;27;89921;-52
2022/10/08 03:20:53;;;;;;;;;;;20.00;64.80;;;;;;5045595;27;89810;-50
2022/10/08 03:23:19;;;;;;;;;;;19.90;64.70;;;;;;5053287;27;92137;-50
2022/10/08 03:25:44;;;;;;;;;;;19.90;64.90;;;;;;5047378;27;90523;-52
2022/10/08 03:28:10;;;;;;;;;;;19.80;65.00;;;;;;5045705;27;91743;-50
2022/10/08 03:30:35;;;;;;;;;;;19.90;65.10;;;;;;5049674;27;91533;-53
2022/10/08 03:33:01;;;;;;;;;;;19.90;65.00;;;;;;5060505;27;90592;-55
2022/10/08 03:35:26;;;;;;;;;;;19.90;65.20;;;;;;5045610;27;90633;-51
2022/10/08 03:37:52;;;;;;;;;;;19.80;65.10;;;;;;5041941;27;91708;-53
2022/10/08 03:40:18;;;;;;;;;;;19.80;64.80;;;;;;5051782;27;89925;-51
2022/10/08 03:42:44;;;;;;;;;;;19.80;64.90;;;;;;5049882;27;90019;-51
2022/10/08 03:45:09;;;;;;;;;;;19.90;64.90;;;;;;5029502;27;90781;-50
2022/10/08 03:47:35;;;;;;;;;;;19.80;64.90;;;;;;5047349;27;90855;-56
2022/10/08 03:50:00;;;;;;;;;;;19.80;65.00;;;;;;5046543;27;93974;-48
2022/10/08 03:52:26;;;;;;;;;;;19.80;65.20;;;;;;5051683;27;91582;-53
2022/10/08 03:54:51;;;;;;;;;;;19.80;64.90;;;;;;5051152;27;91229;-55
2022/10/08 03:57:17;;;;;;;;;;;19.80;65.00;;;;;;5059462;27;89847;-50
2022/10/08 03:59:42;;;;;;;;;;;19.80;65.20;;;;;;5046547;27;90293;-54
2022/10/08 04:02:08;;;;;;;;;;;19.80;65.20;;;;;;5043445;27;90002;-54
2022/10/08 04:04:33;;;;;;;;;;;19.80;65.00;;;;;;5043038;27;90843;-50
2022/10/08 04:06:59;;;;;;;;;;;19.80;65.10;;;;;;5045021;27;90578;-52
2022/10/08 04:09:24;;;;;;;;;;;19.80;64.90;;;;;;5043775;27;89390;-53
2022/10/08 04:11:50;;;;;;;;;;;19.80;64.80;;;;;;5041327;27;90956;-53
2022/10/08 04:14:15;;;;;;;;;;;19.80;64.80;;;;;;5033886;27;90024;-53
2022/10/08 04:16:41;;;;;;;;;;;19.80;64.90;;;;;;5045477;27;91031;-52
2022/10/08 04:19:06;;;;;;;;;;;19.80;64.80;;;;;;5042626;27;91977;-51
2022/10/08 04:21:32;;;;;;;;;;;19.80;65.00;;;;;;5047995;27;89960;-51
2022/10/08 04:23:57;;;;;;;;;;;19.80;64.90;;;;;;5047436;27;90263;-54
2022/10/08 04:26:23;;;;;;;;;;;19.80;65.00;;;;;;5042713;27;90068;-48
2022/10/08 04:28:48;;;;;;;;;;;19.70;65.20;;;;;;5052355;27;89960;-54
2022/10/08 04:31:16;;;;;;;;;;;19.70;65.20;;;;;;5040173;27;90181;-51
2022/10/08 04:33:42;;;;;;;;;;;19.70;65.20;;;;;;5054896;27;89511;-55
2022/10/08 04:36:08;;;;;;;;;;;19.60;65.40;;;;;;5044670;27;90547;-53
2022/10/08 04:38:34;;;;;;;;;;;19.60;65.50;;;;;;5048626;27;89668;-51
2022/10/08 04:41:10;;;;;;;;;;;19.70;65.50;;;;;;5044804;27;91145;-52
2022/10/08 04:43:36;;;;;;;;;;;19.60;65.50;;;;;;5049184;27;90271;-51
2022/10/08 04:46:02;;;;;;;;;;;19.60;65.60;;;;;;5053339;27;89958;-50
2022/10/08 04:48:28;;;;;;;;;;;19.60;65.50;;;;;;5030639;27;89738;-50
2022/10/08 04:50:57;;;;;;;;;;;19.60;65.60;;;;;;5047065;27;90217;-55
2022/10/08 04:53:24;;;;;;;;;;;19.60;65.60;;;;;;5054108;27;90178;-53
2022/10/08 04:55:50;;;;;;;;;;;19.60;65.50;;;;;;5051227;27;89784;-52
2022/10/08 04:58:16;;;;;;;;;;;19.60;65.60;;;;;;5046125;27;90177;-53
2022/10/08 05:00:41;;;;;;;;;;;19.50;65.80;;;;;;5051048;27;92220;-54
2022/10/08 05:03:07;;;;;;;;;;;19.50;66.10;;;;;;5043271;27;90998;-53
2022/10/08 05:05:32;;;;;;;;;;;19.50;66.10;;;;;;5047071;27;91493;-52
2022/10/08 05:07:58;;;;;;;;;;;19.50;66.10;;;;;;5047790;27;89486;-54
2022/10/08 05:10:23;;;;;;;;;;;19.50;65.80;;;;;;5051032;27;91521;-48
2022/10/08 05:12:49;;;;;;;;;;;19.50;65.80;;;;;;5057571;27;90234;-54
2022/10/08 05:15:14;;;;;;;;;;;19.50;65.80;;;;;;5046649;27;89558;-49
2022/10/08 05:17:40;;;;;;;;;;;19.50;65.90;;;;;;5053454;27;89633;-49
2022/10/08 05:20:06;;;;;;;;;;;19.50;65.90;;;;;;5048474;27;90736;-53
2022/10/08 05:22:31;;;;;;;;;;;19.50;65.90;;;;;;5043062;27;92742;-53
2022/10/08 05:24:57;;;;;;;;;;;19.50;66.10;;;;;;5063299;27;89875;-51
2022/10/08 05:27:22;;;;;;;;;;;19.40;66.30;;;;;;5046247;27;91688;-52
2022/10/08 05:29:48;;;;;;;;;;;19.30;66.60;;;;;;5048192;27;90788;-51
2022/10/08 05:32:13;;;;;;;;;;;19.30;66.30;;;;;;5045446;27;89973;-53
2022/10/08 05:34:39;;;;;;;;;;;19.30;66.20;;;;;;5047607;27;90416;-49
2022/10/08 05:37:04;;;;;;;;;;;19.30;66.40;;;;;;5034024;27;92698;-52
2022/10/08 05:39:30;;;;;;;;;;;19.30;66.30;;;;;;5047852;27;91303;-53
2022/10/08 05:41:55;;;;;;;;;;;19.40;66.60;;;;;;5042044;27;90723;-54
2022/10/08 05:44:21;;;;;;;;;;;19.40;65.80;;;;;;5056377;27;89828;-52
2022/10/08 05:46:46;;;;;;;;;;;19.40;66.20;;;;;;5049337;27;89416;-54
2022/10/08 05:49:15;;;;;;;;;;;19.30;66.20;;;;;;5050079;27;93969;-53
2022/10/08 05:51:41;;;;;;;;;;;19.30;66.30;;;;;;5036780;27;90204;-55
2022/10/08 05:54:06;;;;;;;;;;;19.30;66.30;;;;;;5036605;27;96933;-52
2022/10/08 05:56:32;;;;;;;;;;;19.20;66.60;;;;;;5032322;27;91715;-51
2022/10/08 05:58:57;;;;;;;;;;;19.30;66.40;;;;;;5037915;27;91339;-52
2022/10/08 06:01:27;;;;;;;;;;;19.20;66.30;;;;;;5038374;27;90907;-53
2022/10/08 06:03:54;;;;;;;;;;;19.20;66.20;;;;;;5037823;27;91678;-53
2022/10/08 06:06:20;;;;;;;;;;;19.10;66.80;;;;;;5038898;27;89877;-54
2022/10/08 06:08:45;;;;;;;;;;;19.20;66.60;;;;;;5036423;27;89767;-53
2022/10/08 06:11:11;;;;;;;;;;;19.20;66.60;;;;;;5044007;27;94582;-55
2022/10/08 06:13:37;;;;;;;;;;;19.20;66.50;;;;;;5047806;27;90448;-50
2022/10/08 06:16:06;;;;;;;;;;;19.20;66.50;;;;;;5048782;27;92354;-52
2022/10/08 06:18:33;;;;;;;;;;;19.20;66.70;;;;;;5052537;27;95370;-56
2022/10/08 06:21:03;;;;;;;;;;;19.10;66.90;;;;;;5041476;27;90116;-51
2022/10/08 06:23:28;;;;;;;;;;;19.10;67.00;;;;;;5042615;27;90021;-48
2022/10/08 06:25:54;;;;;;;;;;;19.10;67.10;;;;;;5048217;27;89647;-52
2022/10/08 06:28:19;;;;;;;;;;;19.10;66.80;;;;;;5051899;27;92569;-54
2022/10/08 06:30:45;;;;;;;;;;;19.00;66.90;;;;;;5021307;27;90069;-54
2022/10/08 06:33:10;;;;;;;;;;;19.00;67.30;;;;;;5046731;27;90209;-52
2022/10/08 06:35:36;;;;;;;;;;;19.00;67.30;;;;;;5043829;27;89091;-52
2022/10/08 06:38:02;;;;;;;;;;;19.00;67.00;;;;;;5043287;27;89766;-52
2022/10/08 06:40:30;;;;;;;;;;;18.90;67.00;;;;;;5045900;27;90547;-52
2022/10/08 06:42:56;;;;;;;;;;;19.00;67.30;;;;;;5043542;27;91023;-49
2022/10/08 06:45:21;;;;;;;;;;;19.00;67.30;;;;;;5046853;27;92462;-49
2022/10/08 06:47:48;;;;;;;;;;;19.00;67.20;;;;;;5037899;27;92733;-53
2022/10/08 06:50:13;;;;;;;;;;;19.00;67.40;;;;;;5041497;27;89720;-52
2022/10/08 06:52:39;;;;;;;;;;;19.00;67.30;;;;;;5037111;27;89797;-51
2022/10/08 06:55:05;;;;;;;;;;;18.90;67.70;;;;;;5041067;27;89395;-51
2022/10/08 06:57:30;;;;;;;;;;;19.00;67.70;;;;;;5044704;27;90260;-52
2022/10/08 06:59:57;;;;;;;;;;;19.20;67.20;;;;;;5023651;27;91617;-52
2022/10/08 07:02:23;;;;;;;;;;;19.20;67.50;;;;;;5038202;27;90401;-55
2022/10/08 07:04:49;;;;;;;;;;;19.10;67.70;;;;;;5038113;27;89522;-50
2022/10/08 07:07:14;;;;;;;;;;;19.10;67.60;;;;;;5029624;27;92472;-51
2022/10/08 07:09:40;;;;;;;;;;;19.00;67.90;;;;;;5041671;27;93796;-50
2022/10/08 07:12:05;;;;;;;;;;;19.00;68.10;;;;;;5042751;27;90410;-49
2022/10/08 07:14:31;;;;;;;;;;;18.90;68.10;;;;;;5047892;27;89542;-51
2022/10/08 07:16:56;;;;;;;;;;;18.90;68.30;;;;;;5050620;27;89860;-53
2022/10/08 07:19:22;;;;;;;;;;;18.90;68.40;;;;;;5024433;27;89660;-50
2022/10/08 07:21:48;;;;;;;;;;;18.90;68.00;;;;;;5043756;27;90309;-51
2022/10/08 07:24:13;;;;;;;;;;;18.90;68.20;;;;;;5040045;27;89361;-52
2022/10/08 07:26:39;;;;;;;;;;;18.90;68.30;;;;;;5040286;27;90813;-51
2022/10/08 07:29:11;;;;;;;;;;;18.90;68.30;;;;;;5040720;27;90363;-52
2022/10/08 07:31:37;;;;;;;;;;;18.90;68.30;;;;;;5032553;27;91197;-54
2022/10/08 07:34:04;;;;;;;;;;;18.90;68.20;;;;;;5041073;27;96908;-48
2022/10/08 07:36:31;;;;;;;;;;;18.90;68.30;;;;;;5042549;27;90469;-48
2022/10/08 07:38:57;;;;;;;;;;;18.90;68.40;;;;;;5035133;27;90223;-48
2022/10/08 07:41:23;;;;;;;;;;;18.90;68.40;;;;;;5041627;27;90366;-53
2022/10/08 07:43:50;;;;;;;;;;;18.90;68.00;;;;;;5049040;27;90008;-52
2022/10/08 07:46:15;;;;;;;;;;;19.00;68.10;;;;;;5045964;27;90020;-53
2022/10/08 07:48:41;;;;;;;;;;;19.00;67.80;;;;;;5025479;27;91778;-50
2022/10/08 07:51:16;;;;;;;;;;;19.00;68.20;;;;;;5024691;27;91373;-51
2022/10/08 07:53:42;;;;;;;;;;;19.00;68.40;;;;;;5031748;27;89974;-52
2022/10/08 07:56:08;;;;;;;;;;;19.10;67.90;;;;;;5033966;27;91517;-53
2022/10/08 07:58:34;;;;;;;;;;;19.10;67.80;;;;;;5037169;27;89929;-47
2022/10/08 08:01:02;;;;;;;;;;;19.10;67.80;;;;;;5035078;27;90071;-52
2022/10/08 08:03:28;;;;;;;;;;;19.10;67.70;;;;;;5047278;27;89606;-52
2022/10/08 08:05:58;;;;;;;;;;;19.10;67.80;;;;;;5046463;27;91826;-52
2022/10/08 08:08:24;;;;;;;;;;;19.00;67.90;;;;;;5048860;27;94781;-52
2022/10/08 08:11:00;;;;;;;;;;;19.00;68.10;;;;;;5018067;27;90009;-52
2022/10/08 08:13:26;;;;;;;;;;;19.00;67.90;;;;;;5054195;27;89010;-49
2022/10/08 08:15:56;;;;;;;;;;;19.10;68.00;;;;;;5050582;27;91834;-49
2022/10/08 08:18:21;;;;;;;;;;;19.20;67.60;;;;;;5054090;27;90071;-52
2022/10/08 08:20:46;;;;;;;;;;;19.20;67.70;;;;;;5051014;27;90927;-47
2022/10/08 08:23:12;;;;;;;;;;;19.10;67.80;;;;;;5053931;27;90101;-51
2022/10/08 08:25:38;;;;;;;;;;;19.20;67.60;;;;;;5050112;27;90623;-49
2022/10/08 08:28:03;;;;;;;;;;;19.20;67.90;;;;;;5053871;27;90002;-50
2022/10/08 08:30:29;;;;;;;;;;;19.20;67.30;;;;;;5054884;27;90107;-49
2022/10/08 08:32:54;;;;;;;;;;;19.20;67.80;;;;;;5052524;27;90031;-52
2022/10/08 08:35:20;;;;;;;;;;;19.20;67.90;;;;;;5051530;27;89944;-48
2022/10/08 08:37:46;;;;;;;;;;;19.20;67.30;;;;;;5059304;27;90188;-54
2022/10/08 08:40:11;;;;;;;;;;;19.30;67.60;;;;;;5046113;27;90485;-54
2022/10/08 08:42:37;;;;;;;;;;;19.20;67.70;;;;;;5038561;27;96212;-53
2022/10/08 08:45:21;;;;;;;;;;;19.20;67.50;;;;;;5013938;27;93119;-50
2022/10/08 08:48:07;;;;;;;;;;;19.30;67.60;;;;;;5039023;27;91260;-52
2022/10/08 08:50:37;;;;;;;;;;;19.30;67.30;;;;;;5030212;27;95979;-49
2022/10/08 08:53:03;;;;;;;;;;;19.30;67.20;;;;;;5037824;27;90499;-55
2022/10/08 08:55:29;;;;;;;;;;;19.40;67.20;;;;;;5047634;27;90122;-51
2022/10/08 08:58:03;;;;;;;;;;;19.40;66.90;;;;;;5041649;27;90391;-50
2022/10/08 09:00:34;;;;;;;;;;;19.40;67.00;;;;;;5026124;27;90073;-52
2022/10/08 09:03:01;;;;;;;;;;;19.40;66.90;;;;;;5035404;27;91693;-51
2022/10/08 09:05:29;;;;;;;;;;;19.40;67.20;;;;;;5015434;27;91724;-51
2022/10/08 09:08:00;;;;;;;;;;;19.40;67.20;;;;;;5030916;27;92787;-51
2022/10/08 09:10:33;;;;;;;;;;;19.40;66.80;;;;;;5024173;27;91250;-52
2022/10/08 09:12:59;;;;;;;;;;;19.40;66.80;;;;;;5044058;27;91380;-54
2022/10/08 09:15:35;;;;;;;;;;;19.40;66.80;;;;;;5020126;27;92801;-50
2022/10/08 09:18:02;;;;;;;;;;;19.40;66.70;;;;;;5034698;27;90252;-54
2022/10/08 09:20:28;;;;;;;;;;;19.40;66.20;;;;;;5042739;27;90410;-51
2022/10/08 09:22:54;;;;;;;;;;;19.30;66.30;;;;;;5034052;27;90867;-50
2022/10/08 09:25:21;;;;;;;;;;;19.30;66.70;;;;;;5031727;27;89939;-50
2022/10/08 09:27:54;;;;;;;;;;;19.30;66.70;;;;;;5041231;27;89355;-52
2022/10/08 09:30:23;;;;;;;;;;;19.30;66.80;;;;;;5045879;27;90052;-48
2022/10/08 09:32:52;;;;;;;;;;;19.30;67.00;;;;;;5041995;27;90461;-50
2022/10/08 09:35:18;;;;;;;;;;;19.40;67.00;;;;;;5046574;27;94658;-50
2022/10/08 09:37:47;;;;;;;;;;;19.40;66.30;;;;;;5035352;27;90251;-51
2022/10/08 09:40:12;;;;;;;;;;;19.30;66.40;;;;;;5044294;27;90464;-50
2022/10/08 09:42:38;;;;;;;;;;;19.30;67.10;;;;;;5040840;27;90172;-49
2022/10/08 09:45:22;;;;;;;;;;;19.30;67.00;;;;;;5044054;27;92137;-48
2022/10/08 09:48:08;;;;;;;;;;;19.30;67.00;;;;;;5035581;27;89869;-51
2022/10/08 09:50:35;;;;;;;;;;;19.40;66.60;;;;;;5032987;27;97174;-50
2022/10/08 09:53:01;;;;;;;;;;;19.40;66.20;;;;;;5037421;27;89848;-49
2022/10/08 09:55:31;;;;;;;;;;;19.50;66.60;;;;;;5026840;27;90201;-49
2022/10/08 09:57:59;;;;;;;;;;;19.50;66.50;;;;;;5020626;27;94227;-50
2022/10/08 10:00:24;;;;;;;;;;;19.60;66.50;;;;;;5027646;27;92130;-51
2022/10/08 10:02:52;;;;;;;;;;;19.60;66.70;;;;;;5045383;27;89991;-51
2022/10/08 10:05:38;;;;;;;;;;;19.60;66.30;;;;;;5045536;27;89885;-49
2022/10/08 10:08:03;;;;;;;;;;;19.50;66.30;;;;;;5048984;27;89757;-51
2022/10/08 10:10:37;;;;;;;;;;;19.60;67.00;;;;;;5046354;27;91232;-51
2022/10/08 10:13:05;;;;;;;;;;;19.60;66.80;;;;;;5042768;27;90213;-49
2022/10/08 10:15:37;;;;;;;;;;;19.70;67.20;;;;;;5038914;27;92886;-49
2022/10/08 10:18:17;;;;;;;;;;;19.70;66.90;;;;;;5028102;27;89521;-52
2022/10/08 10:21:03;;;;;;;;;;;19.80;67.00;;;;;;5047480;27;90445;-49
2022/10/08 10:23:50;;;;;;;;;;;19.80;67.00;;;;;;5046640;27;90405;-51
2022/10/08 10:26:20;;;;;;;;;;;19.90;66.60;;;;;;5040808;27;90890;-48
2022/10/08 10:28:55;;;;;;;;;;;19.90;66.60;;;;;;5035232;27;90327;-50
2022/10/08 10:31:26;;;;;;;;;;;19.90;67.00;;;;;;5041419;27;89889;-52
2022/10/08 10:33:55;;;;;;;;;;;20.00;67.20;;;;;;5037847;27;90456;-55
2022/10/08 10:36:22;;;;;;;;;;;20.00;67.00;;;;;;5031288;27;91426;-52
2022/10/08 10:38:54;;;;;;;;;;;20.10;66.50;;;;;;5035334;27;91640;-50
2022/10/08 10:41:20;;;;;;;;;;;20.00;66.50;;;;;;5031351;27;89997;-48
2022/10/08 10:43:48;;;;;;;;;;;20.00;66.60;;;;;;5049575;27;89118;-51
2022/10/08 10:46:14;;;;;;;;;;;20.10;66.60;;;;;;5035696;27;92981;-53
2022/10/08 10:48:39;;;;;;;;;;;20.10;67.40;;;;;;5034880;27;90109;-49
2022/10/08 10:51:05;;;;;;;;;;;20.10;66.40;;;;;;5016379;27;91618;-51
2022/10/08 10:53:40;;;;;;;;;;;20.10;66.20;;;;;;5047083;27;90696;-48
2022/10/08 10:56:11;;;;;;;;;;;20.10;66.50;;;;;;5049260;27;89321;-55
2022/10/08 10:58:39;;;;;;;;;;;20.10;66.20;;;;;;5042150;27;91319;-49
2022/10/08 11:01:05;;;;;;;;;;;20.10;66.00;;;;;;5046826;27;90130;-49
2022/10/08 11:03:55;;;;;;;;;;;20.10;66.30;;;;;;5040134;27;89956;-49
2022/10/08 11:06:39;;;;;;;;;;;20.10;66.50;;;;;;5041892;27;91077;-48
2022/10/08 11:09:05;;;;;;;;;;;20.20;66.10;;;;;;5035932;27;90146;-51
2022/10/08 11:11:39;;;;;;;;;;;20.20;65.70;;;;;;5041551;27;89979;-53
2022/10/08 11:14:23;;;;;;;;;;;20.10;65.80;;;;;;5046773;27;92866;-52
2022/10/08 11:16:59;;;;;;;;;;;20.10;66.00;;;;;;5043588;27;91067;-47
2022/10/08 11:19:27;;;;;;;;;;;20.20;66.00;;;;;;5031600;27;90259;-52
2022/10/08 11:22:00;;;;;;;;;;;20.20;66.00;;;;;;5041040;27;90063;-52
2022/10/08 11:24:36;;;;;;;;;;;20.30;66.00;;;;;;5042821;27;89780;-51
2022/10/08 11:27:02;;;;;;;;;;;20.40;65.70;;;;;;5049082;27;91458;-49
2022/10/08 11:29:46;;;;;;;;;;;20.40;65.40;;;;;;5039180;27;91892;-48
2022/10/08 11:32:13;;;;;;;;;;;20.40;65.20;;;;;;5042410;27;96537;-49
2022/10/08 11:34:41;;;;;;;;;;;20.40;64.90;;;;;;5044638;27;89330;-49
2022/10/08 11:37:09;;;;;;;;;;;20.40;64.90;;;;;;5047598;27;90436;-53
2022/10/08 11:39:45;;;;;;;;;;;20.40;65.00;;;;;;5024678;27;91319;-51
2022/10/08 11:42:18;;;;;;;;;;;20.40;64.70;;;;;;5038330;27;93226;-50
2022/10/08 11:44:43;;;;;;;;;;;20.50;64.60;;;;;;5053377;27;89918;-51
2022/10/08 11:47:27;;;;;;;;;;;20.50;64.40;;;;;;5041065;27;89848;-50
2022/10/08 11:49:54;;;;;;;;;;;20.50;64.20;;;;;;5052471;27;91410;-52
2022/10/08 11:52:19;;;;;;;;;;;20.50;64.00;;;;;;5046513;27;89990;-46
2022/10/08 11:54:49;;;;;;;;;;;20.50;63.60;;;;;;5036937;27;90212;-47
2022/10/08 11:57:19;;;;;;;;;;;20.50;63.70;;;;;;5039777;27;92630;-49
2022/10/08 12:00:05;;;;;;;;;;;20.50;63.60;;;;;;5041972;27;90793;-51
2022/10/08 12:02:32;;;;;;;;;;;20.50;63.30;;;;;;5032093;27;90388;-48
2022/10/08 12:04:59;;;;;;;;;;;20.50;63.00;;;;;;5020920;27;95338;-49
2022/10/08 12:07:30;;;;;;;;;;;20.50;62.90;;;;;;5033989;27;91196;-50
2022/10/08 12:10:00;;;;;;;;;;;20.50;62.70;;;;;;5038632;27;90473;-49
2022/10/08 12:12:44;;;;;;;;;;;20.50;62.60;;;;;;5049833;27;91177;-50
2022/10/08 12:15:21;;;;;;;;;;;20.50;62.50;;;;;;5039960;27;89956;-52
2022/10/08 12:17:57;;;;;;;;;;;20.50;62.50;;;;;;5044523;27;92850;-48
2022/10/08 12:20:27;;;;;;;;;;;20.60;62.30;;;;;;5037259;27;90767;-50
2022/10/08 12:23:01;;;;;;;;;;;20.60;62.20;;;;;;5043809;27;92696;-52
2022/10/08 12:25:36;;;;;;;;;;;20.60;62.10;;;;;;5045126;27;89522;-50
2022/10/08 12:28:20;;;;;;;;;;;20.60;62.10;;;;;;5040251;27;89871;-48
2022/10/08 12:30:47;;;;;;;;;;;20.60;61.90;;;;;;5037146;27;91225;-53
2022/10/08 12:33:12;;;;;;;;;;;20.70;61.90;;;;;;5040543;27;92380;-51
2022/10/08 12:35:51;;;;;;;;;;;20.70;61.80;;;;;;5042279;27;90138;-50
2022/10/08 12:38:22;;;;;;;;;;;20.70;61.70;;;;;;5047181;27;89698;-52
2022/10/08 12:40:54;;;;;;;;;;;20.70;61.70;;;;;;5035363;27;90714;-49
2022/10/08 12:43:23;;;;;;;;;;;20.70;61.60;;;;;;5040583;27;90224;-50
2022/10/08 12:46:09;;;;;;;;;;;20.70;61.60;;;;;;5040443;27;92950;-54
2022/10/08 12:48:35;;;;;;;;;;;20.80;61.50;;;;;;5020453;27;90235;-52
2022/10/08 12:51:00;;;;;;;;;;;20.80;61.50;;;;;;5038914;27;90050;-48
2022/10/08 12:53:26;;;;;;;;;;;20.80;61.50;;;;;;5026973;27;91303;-49
2022/10/08 12:55:53;;;;;;;;;;;20.80;61.50;;;;;;5045983;27;92820;-52
2022/10/08 12:58:22;;;;;;;;;;;20.80;61.40;;;;;;5030575;27;91163;-51
2022/10/08 13:00:49;;;;;;;;;;;20.90;61.50;;;;;;5037574;27;91341;-50
2022/10/08 13:03:17;;;;;;;;;;;20.90;61.30;;;;;;5035471;27;89760;-50
2022/10/08 13:05:42;;;;;;;;;;;20.90;61.30;;;;;;5043412;27;89819;-50
2022/10/08 13:08:26;;;;;;;;;;;20.90;61.20;;;;;;5039010;27;91488;-51
2022/10/08 13:10:52;;;;;;;;;;;20.90;61.30;;;;;;5045294;27;91066;-49
2022/10/08 13:13:36;;;;;;;;;;;20.90;61.20;;;;;;5041667;27;90681;-47
2022/10/08 13:16:02;;;;;;;;;;;20.90;61.10;;;;;;5038186;27;89339;-51
2022/10/08 13:18:29;;;;;;;;;;;20.90;61.00;;;;;;5034811;27;90429;-49
2022/10/08 13:20:56;;;;;;;;;;;20.90;60.90;;;;;;5036011;27;92073;-48
2022/10/08 13:23:42;;;;;;;;;;;20.90;60.90;;;;;;5039172;27;90907;-50
2022/10/08 13:26:37;;;;;;;;;;;21.00;60.90;;;;;;5021903;27;90136;-52
2022/10/08 13:29:25;;;;;;;;;;;21.00;60.90;;;;;;4984054;27;92177;-52
2022/10/08 13:31:54;;;;;;;;;;;21.00;60.80;;;;;;5041758;27;90581;-49
2022/10/08 13:34:21;;;;;;;;;;;21.00;60.70;;;;;;5038372;27;89851;-50
2022/10/08 13:36:47;;;;;;;;;;;21.00;60.60;;;;;;5042526;27;90171;-50
2022/10/08 13:39:32;;;;;;;;;;;21.10;60.60;;;;;;5044032;27;93255;-51
2022/10/08 13:41:58;;;;;;;;;;;21.10;60.60;;;;;;5044336;27;90802;-52
2022/10/08 13:44:24;;;;;;;;;;;21.10;60.60;;;;;;5042345;27;91094;-52
2022/10/08 13:46:50;;;;;;;;;;;21.00;60.50;;;;;;5032536;27;93163;-46
2022/10/08 13:49:17;;;;;;;;;;;21.10;60.40;;;;;;5042215;27;93350;-50
2022/10/08 13:51:43;;;;;;;;;;;21.00;60.50;;;;;;5057134;27;94702;-49
2022/10/08 13:54:09;;;;;;;;;;;21.10;60.50;;;;;;5047569;27;89906;-46
2022/10/08 13:56:34;;;;;;;;;;;21.00;60.40;;;;;;5047542;27;91156;-51
2022/10/08 13:58:59;;;;;;;;;;;21.00;60.50;;;;;;5045311;27;92363;-49
2022/10/08 14:01:25;;;;;;;;;;;21.00;60.60;;;;;;5050607;27;89514;-49
2022/10/08 14:03:50;;;;;;;;;;;21.10;60.60;;;;;;5046546;27;90053;-50
2022/10/08 14:06:16;;;;;;;;;;;21.10;60.80;;;;;;5023983;27;92689;-51
2022/10/08 14:08:41;;;;;;;;;;;21.10;60.80;;;;;;5034797;27;92034;-47
2022/10/08 14:11:07;;;;;;;;;;;21.10;60.90;;;;;;5045219;27;90368;-51
2022/10/08 14:13:33;;;;;;;;;;;21.10;61.00;;;;;;5041215;27;91452;-47
2022/10/08 14:15:58;;;;;;;;;;;21.10;61.00;;;;;;5032394;27;90213;-51
2022/10/08 14:18:25;;;;;;;;;;;21.10;61.00;;;;;;5041983;27;90487;-50
2022/10/08 14:20:50;;;;;;;;;;;21.10;61.00;;;;;;5040615;27;90080;-51
2022/10/08 14:23:16;;;;;;;;;;;21.10;60.90;;;;;;5038080;27;90302;-49
2022/10/08 14:25:41;;;;;;;;;;;21.10;61.00;;;;;;5040466;27;94206;-51